Time;durP1;ratioP1;P1;durP2;ratioP2;P2;SDS_P1;SDS_P2;PMS_P1;PMS_P2;Temp;Humidity;BMP_temperature;BMP_pressure;BME280_temperature;BME280_humidity;BME280_pressure;Samples;Min_cycle;Max_cycle;Signal;HPM_P1;HPM_P2
2023/01/13 00:01:31;;;;;;;4.60;2.97;;;;;;;;;;4916899;29;20203;-67
2023/01/13 00:03:59;;;;;;;5.67;4.20;;;;;;;;;;4913186;29;20188;-67
2023/01/13 00:06:26;;;;;;;5.53;3.53;;;;;;;;;;4914861;29;20238;-67
2023/01/13 00:08:53;;;;;;;5.33;3.70;;;;;;;;;;4914775;29;20203;-67
2023/01/13 00:11:20;;;;;;;6.17;3.93;;;;;;;;;;4897908;29;20677;-67
2023/01/13 00:13:47;;;;;;;3.93;2.63;;;;;;;;;;4913684;29;20196;-66
2023/01/13 00:16:14;;;;;;;4.50;3.20;;;;;;;;;;4915069;29;20215;-66
2023/01/13 00:18:41;;;;;;;3.87;3.40;;;;;;;;;;4913671;29;20611;-66
2023/01/13 00:21:12;;;;;;;5.67;3.23;;;;;;;;;;4912646;29;20191;-67
2023/01/13 00:23:39;;;;;;;3.50;2.70;;;;;;;;;;4897807;29;20235;-67
2023/01/13 00:26:08;;;;;;;4.47;3.63;;;;;;;;;;4913921;29;20208;-67
2023/01/13 00:28:36;;;;;;;3.50;2.77;;;;;;;;;;4913494;29;20541;-67
2023/01/13 00:31:06;;;;;;;4.30;3.13;;;;;;;;;;4913417;29;20804;-67
2023/01/13 00:33:33;;;;;;;4.17;2.83;;;;;;;;;;4914580;29;20199;-67
2023/01/13 00:36:00;;;;;;;6.53;3.87;;;;;;;;;;4914315;29;20221;-67
2023/01/13 00:38:27;;;;;;;2.73;2.17;;;;;;;;;;4914453;29;20543;-67
2023/01/13 00:41:02;;;;;;;4.33;3.20;;;;;;;;;;4913035;29;20199;-67
2023/01/13 00:43:29;;;;;;;5.63;3.63;;;;;;;;;;4913115;29;20290;-67
2023/01/13 00:45:56;;;;;;;6.73;3.50;;;;;;;;;;4897291;29;20544;-67
2023/01/13 00:48:26;;;;;;;3.13;2.60;;;;;;;;;;4914342;29;20199;-67
2023/01/13 00:50:59;;;;;;;6.10;3.70;;;;;;;;;;4913000;29;20196;-67
2023/01/13 00:53:44;;;;;;;5.47;3.70;;;;;;;;;;4912879;29;20187;-67
2023/01/13 00:56:14;;;;;;;7.13;3.30;;;;;;;;;;4913980;29;20253;-67
2023/01/13 00:58:59;;;;;;;4.47;3.53;;;;;;;;;;4913117;29;20187;-67
2023/01/13 01:01:25;;;;;;;6.37;4.17;;;;;;;;;;4923189;29;20193;-67
2023/01/13 01:04:10;;;;;;;4.97;3.83;;;;;;;;;;4918700;29;20175;-67
2023/01/13 01:06:37;;;;;;;4.77;3.43;;;;;;;;;;4913601;29;20702;-66
2023/01/13 01:09:04;;;;;;;5.60;4.03;;;;;;;;;;4912814;29;20200;-67
2023/01/13 01:11:31;;;;;;;8.50;4.10;;;;;;;;;;4912359;29;20746;-67
2023/01/13 01:13:58;;;;;;;6.53;3.93;;;;;;;;;;4912542;29;20235;-67
2023/01/13 01:16:25;;;;;;;6.60;3.87;;;;;;;;;;4897079;29;20627;-64
2023/01/13 01:18:53;;;;;;;4.10;3.27;;;;;;;;;;4914117;29;20585;-64
2023/01/13 01:21:20;;;;;;;7.27;4.50;;;;;;;;;;4912228;29;20239;-63
2023/01/13 01:24:04;;;;;;;4.50;3.97;;;;;;;;;;4912769;29;20195;-64
2023/01/13 01:26:31;;;;;;;5.10;4.60;;;;;;;;;;4913442;29;20191;-63
2023/01/13 01:28:58;;;;;;;5.07;3.57;;;;;;;;;;4913984;29;20191;-63
2023/01/13 01:31:25;;;;;;;3.17;2.50;;;;;;;;;;4914025;29;20196;-64
2023/01/13 01:33:52;;;;;;;6.90;4.17;;;;;;;;;;4913711;29;20203;-63
2023/01/13 01:36:20;;;;;;;5.53;4.20;;;;;;;;;;4913473;29;20286;-64
2023/01/13 01:38:47;;;;;;;8.43;4.30;;;;;;;;;;4913553;29;20600;-63
2023/01/13 01:41:15;;;;;;;5.30;3.07;;;;;;;;;;4911800;29;20293;-63
2023/01/13 02:16:21;;;;;;;5.43;4.43;;;;;;;;;;4913264;29;20868;-64
2023/01/13 02:18:57;;;;;;;7.97;3.10;;;;;;;;;;4912144;29;20252;-63
2023/01/13 02:21:24;;;;;;;5.80;3.43;;;;;;;;;;4911930;29;20555;-63
2023/01/13 02:27:18;;;;;;;5.73;3.77;;;;;;;;;;4912986;29;20310;-63
2023/01/13 02:32:54;;;;;;;4.93;3.60;;;;;;;;;;4913061;29;20833;-64
2023/01/13 02:35:21;;;;;;;5.23;3.57;;;;;;;;;;4911996;29;20203;-64
2023/01/13 02:37:47;;;;;;;4.77;3.70;;;;;;;;;;4913064;29;20247;-63
2023/01/13 02:40:17;;;;;;;3.70;3.13;;;;;;;;;;4912210;29;20210;-64
2023/01/13 02:45:33;;;;;;;4.70;3.40;;;;;;;;;;4914225;29;20191;-63
2023/01/13 02:47:59;;;;;;;2.80;1.97;;;;;;;;;;4915080;29;20199;-64
2023/01/13 02:50:43;;;;;;;4.47;3.63;;;;;;;;;;4915297;29;20206;-63
2023/01/13 02:53:20;;;;;;;3.83;2.97;;;;;;;;;;4915217;29;20247;-63
2023/01/13 02:55:48;;;;;;;7.43;4.33;;;;;;;;;;4916013;29;20200;-63
2023/01/13 02:58:17;;;;;;;3.77;3.37;;;;;;;;;;4916307;29;20191;-64
2023/01/13 03:00:44;;;;;;;2.53;2.13;;;;;;;;;;4921058;29;20199;-63
2023/01/13 03:03:10;;;;;;;4.00;3.40;;;;;;;;;;4918235;29;20278;-65
2023/01/13 03:05:37;;;;;;;4.00;2.43;;;;;;;;;;4920605;29;20210;-63
2023/01/13 03:08:04;;;;;;;3.40;3.00;;;;;;;;;;4916086;29;20663;-64
2023/01/13 03:10:33;;;;;;;4.23;3.00;;;;;;;;;;4916199;29;20187;-63
2023/01/13 03:13:05;;;;;;;2.97;2.60;;;;;;;;;;4914762;29;20207;-63
2023/01/13 03:15:51;;;;;;;2.10;1.80;;;;;;;;;;4915951;29;20195;-63
2023/01/13 03:18:38;;;;;;;3.23;2.30;;;;;;;;;;4914594;29;20199;-64
2023/01/13 03:21:16;;;;;;;2.67;2.00;;;;;;;;;;4915628;29;20198;-64
2023/01/13 03:23:46;;;;;;;2.00;1.30;;;;;;;;;;4915831;29;20199;-64
2023/01/13 03:26:14;;;;;;;3.77;2.50;;;;;;;;;;4915659;29;20180;-63
2023/01/13 03:28:42;;;;;;;2.80;2.50;;;;;;;;;;4914839;29;20206;-64
2023/01/13 03:31:11;;;;;;;3.60;3.00;;;;;;;;;;4913657;29;20443;-64
2023/01/13 03:33:56;;;;;;;3.20;2.50;;;;;;;;;;4914399;29;20286;-63
2023/01/13 03:36:41;;;;;;;3.77;2.47;;;;;;;;;;4914642;29;20207;-63
2023/01/13 03:39:11;;;;;;;2.20;1.90;;;;;;;;;;4915513;29;20187;-64
2023/01/13 03:41:40;;;;;;;2.67;2.13;;;;;;;;;;4914989;29;20260;-63
2023/01/13 03:44:23;;;;;;;2.70;1.77;;;;;;;;;;4914294;29;20188;-63
2023/01/13 03:46:53;;;;;;;2.67;2.27;;;;;;;;;;4915540;29;20663;-63
2023/01/13 03:49:21;;;;;;;2.50;2.13;;;;;;;;;;4915729;29;20195;-63
2023/01/13 03:51:49;;;;;;;3.73;2.23;;;;;;;;;;4915372;29;20187;-63
2023/01/13 03:54:15;;;;;;;1.83;1.17;;;;;;;;;;4913867;29;20670;-65
2023/01/13 03:56:44;;;;;;;2.47;2.10;;;;;;;;;;4914040;29;20215;-64
2023/01/13 03:59:13;;;;;;;2.97;2.07;;;;;;;;;;4913228;29;20195;-63
2023/01/13 04:02:02;;;;;;;2.40;2.00;;;;;;;;;;4920865;29;20506;-64
2023/01/13 04:04:49;;;;;;;2.47;2.27;;;;;;;;;;4919483;29;20284;-64
2023/01/13 04:07:22;;;;;;;2.27;1.90;;;;;;;;;;4928913;29;20234;-65
2023/01/13 04:09:50;;;;;;;2.60;2.20;;;;;;;;;;4917577;29;20221;-66
2023/01/13 04:12:19;;;;;;;1.97;1.77;;;;;;;;;;4915453;29;20213;-65
2023/01/13 04:14:46;;;;;;;2.90;1.93;;;;;;;;;;4918026;28;20591;-64
2023/01/13 04:17:12;;;;;;;2.40;2.07;;;;;;;;;;4928600;29;20257;-63
2023/01/13 04:19:39;;;;;;;2.40;2.00;;;;;;;;;;4953318;29;20277;-62
2023/01/13 04:22:05;;;;;;;2.87;2.07;;;;;;;;;;4927448;29;20187;-62
2023/01/13 04:24:32;;;;;;;1.57;1.20;;;;;;;;;;4914823;29;20275;-62
2023/01/13 04:26:59;;;;;;;3.87;2.27;;;;;;;;;;4914402;29;20231;-60
2023/01/13 04:29:26;;;;;;;3.40;2.07;;;;;;;;;;4914501;29;20258;-64
2023/01/13 04:31:53;;;;;;;3.77;1.90;;;;;;;;;;4914691;29;20192;-62
2023/01/13 04:34:37;;;;;;;3.37;2.10;;;;;;;;;;4913264;29;20254;-63
2023/01/13 04:37:04;;;;;;;2.97;2.07;;;;;;;;;;4914387;29;20615;-63
2023/01/13 04:39:30;;;;;;;2.20;1.83;;;;;;;;;;4914288;29;20269;-63
2023/01/13 04:41:57;;;;;;;1.73;1.60;;;;;;;;;;4921551;29;20635;-64
2023/01/13 04:44:24;;;;;;;2.23;1.50;;;;;;;;;;4929991;29;20743;-63
2023/01/13 04:46:51;;;;;;;1.80;1.70;;;;;;;;;;4914377;29;20206;-62
2023/01/13 04:49:18;;;;;;;3.10;1.80;;;;;;;;;;4932597;29;20211;-62
2023/01/13 04:51:45;;;;;;;3.67;1.97;;;;;;;;;;4932937;29;20186;-63
2023/01/13 04:54:12;;;;;;;2.63;1.50;;;;;;;;;;4932517;29;20198;-63
2023/01/13 04:56:38;;;;;;;2.10;1.90;;;;;;;;;;4931609;29;20285;-64
2023/01/13 04:59:05;;;;;;;1.70;1.60;;;;;;;;;;4932707;29;20199;-63
2023/01/13 05:01:31;;;;;;;1.83;1.37;;;;;;;;;;4926035;29;20250;-63
2023/01/13 05:03:58;;;;;;;2.03;1.40;;;;;;;;;;4932287;29;20570;-63
2023/01/13 05:06:25;;;;;;;1.43;1.33;;;;;;;;;;4932877;29;20263;-63
2023/01/13 05:09:10;;;;;;;1.40;1.07;;;;;;;;;;4931947;29;20175;-64
2023/01/13 05:17:07;;;;;;;1.70;1.17;;;;;;;;;;4932367;29;20217;-63
2023/01/13 05:19:34;;;;;;;3.13;1.60;;;;;;;;;;4925792;29;20195;-63
2023/01/13 05:27:31;;;;;;;2.03;1.47;;;;;;;;;;4933916;29;20226;-63
2023/01/13 05:29:58;;;;;;;2.90;1.50;;;;;;;;;;4934007;29;20194;-65
2023/01/13 05:32:26;;;;;;;1.73;1.30;;;;;;;;;;4933290;29;20274;-66
2023/01/13 05:34:54;;;;;;;4.80;1.57;;;;;;;;;;4915869;29;20919;-64
2023/01/13 05:37:21;;;;;;;1.60;1.30;;;;;;;;;;4938163;29;20214;-63
2023/01/13 05:45:19;;;;;;;1.60;1.43;;;;;;;;;;4932524;29;20281;-63
2023/01/13 05:47:45;;;;;;;1.40;1.10;;;;;;;;;;4932177;29;20187;-64
2023/01/13 05:50:12;;;;;;;1.50;1.40;;;;;;;;;;4932397;29;20222;-64
2023/01/13 05:52:38;;;;;;;3.83;1.53;;;;;;;;;;4931808;29;20265;-63
2023/01/13 05:55:05;;;;;;;1.53;1.40;;;;;;;;;;4932447;29;20218;-63
2023/01/13 05:57:32;;;;;;;2.60;2.07;;;;;;;;;;4933107;29;20686;-63
2023/01/13 05:59:58;;;;;;;2.97;2.20;;;;;;;;;;4931660;29;20209;-65
2023/01/13 06:02:43;;;;;;;1.30;1.10;;;;;;;;;;4923691;29;20178;-64
2023/01/13 06:05:09;;;;;;;2.03;1.83;;;;;;;;;;4931481;29;20595;-64
2023/01/13 06:07:57;;;;;;;2.70;1.50;;;;;;;;;;4931997;29;20542;-64
2023/01/13 06:10:24;;;;;;;1.90;1.60;;;;;;;;;;4910351;29;20902;-62
2023/01/13 06:12:50;;;;;;;1.40;1.00;;;;;;;;;;4930327;29;20190;-63
2023/01/13 06:15:17;;;;;;;1.80;1.40;;;;;;;;;;4935036;28;20269;-64
2023/01/13 06:17:44;;;;;;;1.97;1.63;;;;;;;;;;4931077;29;20245;-63
2023/01/13 06:20:11;;;;;;;2.80;1.60;;;;;;;;;;4939641;28;20194;-63
2023/01/13 06:22:38;;;;;;;6.07;2.40;;;;;;;;;;4935421;29;20195;-63
2023/01/13 06:25:10;;;;;;;3.87;2.13;;;;;;;;;;4936994;29;20273;-64
2023/01/13 06:27:37;;;;;;;3.33;2.10;;;;;;;;;;4917034;29;20237;-62
2023/01/13 06:30:04;;;;;;;3.40;2.03;;;;;;;;;;4934430;29;20195;-62
2023/01/13 06:32:31;;;;;;;3.73;2.23;;;;;;;;;;4934305;28;20195;-63
2023/01/13 06:34:59;;;;;;;3.67;2.30;;;;;;;;;;4914086;29;20217;-63
2023/01/13 06:37:26;;;;;;;2.73;1.60;;;;;;;;;;4936041;28;20308;-64
2023/01/13 06:39:57;;;;;;;4.90;2.40;;;;;;;;;;4940376;29;20195;-65
2023/01/13 06:45:10;;;;;;;3.87;2.10;;;;;;;;;;4935560;28;20202;-65
2023/01/13 06:47:37;;;;;;;3.30;1.80;;;;;;;;;;4932466;29;20281;-65
2023/01/13 06:50:04;;;;;;;1.80;1.30;;;;;;;;;;4934258;28;20852;-63
2023/01/13 06:52:31;;;;;;;2.90;1.67;;;;;;;;;;4935363;29;20614;-65
2023/01/13 06:54:59;;;;;;;3.17;1.87;;;;;;;;;;4939497;28;20707;-66
2023/01/13 06:57:28;;;;;;;2.40;1.80;;;;;;;;;;4934069;29;20214;-65
2023/01/13 06:59:54;;;;;;;2.90;1.80;;;;;;;;;;4940260;28;20207;-62
2023/01/13 07:02:21;;;;;;;4.77;2.23;;;;;;;;;;4938354;28;20245;-63
2023/01/13 07:04:48;;;;;;;4.43;2.60;;;;;;;;;;4935182;29;20270;-64
2023/01/13 07:07:15;;;;;;;5.40;2.63;;;;;;;;;;4929324;29;23047;-64
2023/01/13 07:10:00;;;;;;;5.73;2.63;;;;;;;;;;4935089;29;20201;-65
2023/01/13 07:12:26;;;;;;;4.97;2.37;;;;;;;;;;4938707;29;20209;-65
2023/01/13 07:17:38;;;;;;;5.03;2.27;;;;;;;;;;4936442;29;20708;-65
2023/01/13 07:20:05;;;;;;;3.07;1.83;;;;;;;;;;4932489;29;20238;-64
2023/01/13 07:22:32;;;;;;;2.07;1.73;;;;;;;;;;4935285;28;20265;-64
2023/01/13 07:24:58;;;;;;;2.47;1.90;;;;;;;;;;4933985;29;20685;-64
2023/01/13 07:27:25;;;;;;;4.07;2.03;;;;;;;;;;4938711;28;20321;-65
2023/01/13 07:29:52;;;;;;;2.50;1.90;;;;;;;;;;4922176;28;20237;-65
2023/01/13 07:32:18;;;;;;;2.30;1.73;;;;;;;;;;4932155;29;20198;-63
2023/01/13 07:35:06;;;;;;;2.37;1.70;;;;;;;;;;4936526;28;20193;-65
2023/01/13 07:37:33;;;;;;;3.17;2.50;;;;;;;;;;4936750;29;21470;-65
2023/01/13 07:40:17;;;;;;;2.57;2.30;;;;;;;;;;4936571;29;20240;-63
2023/01/13 07:45:29;;;;;;;3.07;2.17;;;;;;;;;;4938908;29;20297;-64
2023/01/13 07:47:56;;;;;;;3.17;2.87;;;;;;;;;;4934688;29;20194;-64
2023/01/13 07:50:22;;;;;;;3.30;3.00;;;;;;;;;;4920704;29;20225;-64
2023/01/13 07:53:07;;;;;;;3.97;3.23;;;;;;;;;;4933141;29;20265;-65
2023/01/13 07:55:33;;;;;;;3.77;3.30;;;;;;;;;;4937796;29;20266;-66
2023/01/13 07:58:00;;;;;;;4.20;2.77;;;;;;;;;;4930949;28;20210;-64
2023/01/13 08:00:27;;;;;;;2.87;2.57;;;;;;;;;;4936110;29;20563;-65
2023/01/13 08:02:53;;;;;;;3.47;2.90;;;;;;;;;;4939141;29;20349;-65
2023/01/13 08:05:20;;;;;;;3.97;3.37;;;;;;;;;;4934237;29;20287;-66
2023/01/13 08:07:47;;;;;;;3.33;3.03;;;;;;;;;;4919028;29;20206;-65
2023/01/13 08:10:14;;;;;;;4.40;2.77;;;;;;;;;;4934167;29;20218;-66
2023/01/13 08:13:18;;;;;;;4.73;3.73;;;;;;;;;;4925811;29;20182;-64
2023/01/13 08:15:52;;;;;;;2.57;2.37;;;;;;;;;;4928853;29;20901;-67
2023/01/13 08:18:20;;;;;;;4.00;3.13;;;;;;;;;;4935359;29;20876;-68
2023/01/13 08:20:48;;;;;;;4.00;2.97;;;;;;;;;;4915957;29;20266;-69
2023/01/13 08:23:15;;;;;;;4.37;3.20;;;;;;;;;;4915381;29;20834;-66
2023/01/13 08:25:42;;;;;;;4.33;3.07;;;;;;;;;;4918383;29;20218;-67
2023/01/13 08:28:09;;;;;;;4.87;3.00;;;;;;;;;;4920534;29;20859;-65
2023/01/13 08:30:36;;;;;;;4.77;3.40;;;;;;;;;;4919141;29;20190;-66
2023/01/13 08:33:05;;;;;;;5.53;3.67;;;;;;;;;;4930759;29;20283;-66
2023/01/13 08:35:31;;;;;;;3.83;3.43;;;;;;;;;;4924437;29;20272;-67
2023/01/13 08:37:58;;;;;;;4.27;3.30;;;;;;;;;;4929768;29;20222;-64
2023/01/13 08:40:25;;;;;;;3.37;2.70;;;;;;;;;;4931757;28;20206;-66
2023/01/13 08:42:54;;;;;;;4.13;3.67;;;;;;;;;;4927149;28;20202;-66
2023/01/13 08:45:20;;;;;;;4.63;3.37;;;;;;;;;;4929481;29;20187;-67
2023/01/13 08:47:47;;;;;;;4.83;3.50;;;;;;;;;;4897928;28;20195;-67
2023/01/13 08:50:14;;;;;;;3.10;2.17;;;;;;;;;;4918207;29;21167;-65
2023/01/13 08:52:41;;;;;;;4.43;3.07;;;;;;;;;;4927736;29;20667;-64
2023/01/13 08:55:08;;;;;;;5.97;4.00;;;;;;;;;;4924523;29;20550;-63
2023/01/13 08:57:34;;;;;;;3.70;3.23;;;;;;;;;;4935773;29;20222;-64
2023/01/13 09:00:01;;;;;;;4.87;3.60;;;;;;;;;;4914893;29;20198;-66
2023/01/13 09:02:28;;;;;;;4.63;3.60;;;;;;;;;;4939517;28;20206;-66
2023/01/13 09:04:56;;;;;;;5.17;3.80;;;;;;;;;;4911822;29;20186;-67
2023/01/13 09:07:23;;;;;;;5.03;3.93;;;;;;;;;;4924037;29;20199;-64
2023/01/13 09:09:50;;;;;;;5.23;4.10;;;;;;;;;;4930364;29;20194;-64
2023/01/13 09:15:03;;;;;;;6.53;4.20;;;;;;;;;;4928813;29;20198;-65
2023/01/13 09:17:29;;;;;;;4.30;3.53;;;;;;;;;;4929853;29;20294;-66
2023/01/13 09:19:56;;;;;;;4.87;3.97;;;;;;;;;;4929150;29;20198;-66
2023/01/13 09:22:25;;;;;;;4.03;2.87;;;;;;;;;;4942646;29;20183;-66
2023/01/13 09:24:53;;;;;;;5.80;4.43;;;;;;;;;;4930113;29;20298;-68
2023/01/13 09:27:20;;;;;;;5.80;3.77;;;;;;;;;;4922906;29;20224;-67
2023/01/13 09:29:47;;;;;;;5.20;3.67;;;;;;;;;;4899935;29;20235;-66
2023/01/13 09:32:13;;;;;;;6.30;4.13;;;;;;;;;;4927740;29;20192;-66
2023/01/13 09:34:59;;;;;;;6.13;4.30;;;;;;;;;;4905626;29;20203;-66
2023/01/13 09:37:43;;;;;;;3.83;3.30;;;;;;;;;;4908511;29;20207;-66
2023/01/13 09:40:17;;;;;;;5.30;3.97;;;;;;;;;;4912845;29;20990;-66
2023/01/13 09:45:45;;;;;;;4.97;4.27;;;;;;;;;;4911268;29;20228;-66
2023/01/13 09:48:15;;;;;;;5.13;4.30;;;;;;;;;;4910106;29;20192;-67
2023/01/13 09:51:01;;;;;;;6.13;3.80;;;;;;;;;;4893422;29;20286;-67
2023/01/13 09:53:29;;;;;;;6.33;4.73;;;;;;;;;;4911944;29;20219;-66
2023/01/13 09:55:56;;;;;;;6.27;4.63;;;;;;;;;;4913193;29;20227;-67
2023/01/13 09:58:23;;;;;;;9.20;4.50;;;;;;;;;;4911867;29;20703;-66
2023/01/13 10:00:51;;;;;;;6.43;4.53;;;;;;;;;;4916120;29;20206;-69
2023/01/13 10:03:20;;;;;;;5.80;4.83;;;;;;;;;;4913541;29;20608;-67
2023/01/13 10:05:49;;;;;;;6.90;4.57;;;;;;;;;;4913491;29;20891;-67
2023/01/13 10:08:19;;;;;;;5.40;4.10;;;;;;;;;;4913372;29;20188;-64
2023/01/13 10:10:50;;;;;;;6.80;4.43;;;;;;;;;;4922879;29;20199;-64
2023/01/13 10:13:24;;;;;;;7.37;4.03;;;;;;;;;;4929733;29;20239;-66
2023/01/13 10:15:56;;;;;;;4.50;3.37;;;;;;;;;;4913544;29;20659;-65
2023/01/13 10:18:33;;;;;;;6.73;3.97;;;;;;;;;;4910785;29;20848;-65
2023/01/13 10:21:08;;;;;;;5.53;4.07;;;;;;;;;;4914140;29;20195;-66
2023/01/13 10:23:59;;;;;;;4.53;3.37;;;;;;;;;;4913575;29;20207;-66
2023/01/13 10:26:35;;;;;;;5.50;3.20;;;;;;;;;;4896191;29;20223;-66
2023/01/13 10:29:02;;;;;;;3.83;2.77;;;;;;;;;;4925581;29;20305;-65
2023/01/13 10:31:29;;;;;;;3.20;2.90;;;;;;;;;;4923436;29;20317;-65
2023/01/13 10:33:59;;;;;;;4.23;2.90;;;;;;;;;;4933393;29;20195;-66
2023/01/13 10:36:27;;;;;;;3.00;2.60;;;;;;;;;;4913389;29;20229;-64
2023/01/13 10:38:54;;;;;;;3.67;2.37;;;;;;;;;;4932508;29;20218;-65
2023/01/13 10:41:24;;;;;;;2.23;1.80;;;;;;;;;;4915445;29;20203;-64
2023/01/13 10:43:51;;;;;;;4.37;1.90;;;;;;;;;;4933557;29;20191;-65
2023/01/13 10:46:18;;;;;;;2.40;1.63;;;;;;;;;;4931609;29;20198;-65
2023/01/13 10:48:54;;;;;;;2.70;1.87;;;;;;;;;;4899998;29;20191;-64
2023/01/13 10:51:41;;;;;;;3.07;1.97;;;;;;;;;;4917274;29;20174;-68
2023/01/13 10:54:11;;;;;;;3.37;1.40;;;;;;;;;;4909373;29;20528;-65
2023/01/13 10:56:39;;;;;;;3.00;1.60;;;;;;;;;;4929671;29;20242;-65
2023/01/13 10:59:14;;;;;;;3.70;1.80;;;;;;;;;;4932296;29;20219;-63
2023/01/13 11:01:42;;;;;;;3.27;1.47;;;;;;;;;;4916804;29;20199;-65
2023/01/13 11:04:28;;;;;;;2.50;1.83;;;;;;;;;;4899721;29;20214;-64
2023/01/13 11:06:57;;;;;;;3.70;1.70;;;;;;;;;;4933825;29;20322;-64
2023/01/13 11:09:25;;;;;;;2.97;1.67;;;;;;;;;;4926391;29;20558;-64
2023/01/13 11:11:55;;;;;;;4.07;2.20;;;;;;;;;;4898839;29;20319;-66
2023/01/13 11:14:35;;;;;;;4.77;2.10;;;;;;;;;;4929413;29;20200;-65
2023/01/13 11:17:08;;;;;;;5.43;2.30;;;;;;;;;;4920244;29;21963;-65
2023/01/13 11:20:18;;;;;;;3.73;2.20;;;;;;;;;;4947998;28;20207;-64
2023/01/13 11:22:46;;;;;;;3.90;2.10;;;;;;;;;;4928917;29;20738;-65
2023/01/13 11:25:18;;;;;;;4.23;2.20;;;;;;;;;;4910473;29;20289;-67
2023/01/13 11:28:04;;;;;;;3.90;2.30;;;;;;;;;;4913023;29;21016;-65
2023/01/13 11:30:36;;;;;;;3.37;1.90;;;;;;;;;;4907558;29;20195;-64
2023/01/13 11:33:06;;;;;;;3.67;1.90;;;;;;;;;;4915036;29;20245;-64
2023/01/13 11:35:34;;;;;;;1.83;1.07;;;;;;;;;;4915488;29;20221;-64
2023/01/13 11:38:03;;;;;;;2.37;1.47;;;;;;;;;;4912157;29;20192;-65
2023/01/13 11:40:31;;;;;;;3.63;1.63;;;;;;;;;;4895876;29;20312;-64
2023/01/13 11:42:59;;;;;;;2.97;1.50;;;;;;;;;;4929326;29;20199;-64
2023/01/13 11:45:34;;;;;;;3.93;1.97;;;;;;;;;;4913486;29;20279;-64
2023/01/13 11:48:01;;;;;;;2.77;1.50;;;;;;;;;;4913349;29;20191;-65
2023/01/13 11:50:33;;;;;;;2.70;1.40;;;;;;;;;;4929496;29;20671;-64
2023/01/13 11:53:15;;;;;;;2.93;1.40;;;;;;;;;;4911469;29;20199;-64
2023/01/13 11:55:48;;;;;;;2.63;1.53;;;;;;;;;;4913650;29;20259;-64
2023/01/13 11:58:18;;;;;;;2.73;1.13;;;;;;;;;;4915897;29;20537;-64
2023/01/13 12:00:48;;;;;;;1.87;1.20;;;;;;;;;;4908976;29;20195;-65
2023/01/13 12:03:34;;;;;;;3.10;1.40;;;;;;;;;;4913666;29;20192;-64
2023/01/13 12:06:15;;;;;;;2.10;1.30;;;;;;;;;;4908740;29;20609;-64
2023/01/13 12:08:46;;;;;;;1.90;1.13;;;;;;;;;;4919599;29;20195;-65
2023/01/13 12:11:14;;;;;;;2.80;1.27;;;;;;;;;;4910505;29;20202;-63
2023/01/13 12:13:59;;;;;;;5.23;1.67;;;;;;;;;;4911043;29;20207;-64
2023/01/13 12:16:29;;;;;;;3.30;1.70;;;;;;;;;;4912000;29;20192;-62
2023/01/13 12:19:06;;;;;;;3.47;2.50;;;;;;;;;;4916149;29;20218;-64
2023/01/13 12:21:50;;;;;;;5.37;2.27;;;;;;;;;;4901007;29;20231;-64
2023/01/13 12:24:36;;;;;;;3.87;2.40;;;;;;;;;;4913362;29;20206;-64
2023/01/13 12:27:39;;;;;;;2.20;1.47;;;;;;;;;;4918360;29;20223;-62
2023/01/13 12:30:15;;;;;;;4.37;1.80;;;;;;;;;;4907564;29;21176;-65
2023/01/13 12:32:53;;;;;;;4.10;1.73;;;;;;;;;;4912249;29;20714;-63
2023/01/13 12:36:28;;;;;;;2.63;1.53;;;;;;;;;;4909236;29;20339;-64
2023/01/13 12:39:06;;;;;;;3.00;1.90;;;;;;;;;;4910492;29;20233;-63
2023/01/13 12:45:09;;;;;;;2.87;1.90;;;;;;;;;;4914613;29;20544;-64
2023/01/13 12:47:37;;;;;;;2.90;2.10;;;;;;;;;;4918781;29;20192;-64
2023/01/13 12:50:25;;;;;;;4.43;2.57;;;;;;;;;;4917492;29;20200;-63
2023/01/13 12:52:53;;;;;;;3.97;1.63;;;;;;;;;;4912255;29;20195;-65
2023/01/13 12:55:29;;;;;;;5.03;1.97;;;;;;;;;;4896346;29;20215;-63
2023/01/13 12:58:13;;;;;;;3.80;1.97;;;;;;;;;;4909518;29;20195;-63
2023/01/13 13:00:40;;;;;;;4.90;1.80;;;;;;;;;;4911463;29;20183;-64
2023/01/13 13:03:10;;;;;;;5.00;2.40;;;;;;;;;;4913472;29;20267;-63
2023/01/13 13:05:36;;;;;;;4.70;2.30;;;;;;;;;;4913475;29;20191;-63
2023/01/13 13:08:36;;;;;;;4.43;2.13;;;;;;;;;;4911934;29;20178;-64
2023/01/13 13:14:02;;;;;;;3.27;1.70;;;;;;;;;;4913168;29;20196;-65
2023/01/13 13:16:29;;;;;;;4.90;1.67;;;;;;;;;;4913135;29;20235;-62
2023/01/13 13:19:19;;;;;;;3.90;1.80;;;;;;;;;;4908691;29;20215;-64
2023/01/13 13:22:05;;;;;;;2.20;1.60;;;;;;;;;;4910458;29;20250;-63
2023/01/13 13:24:31;;;;;;;4.23;2.03;;;;;;;;;;4919607;29;20231;-63
2023/01/13 13:27:14;;;;;;;3.70;1.63;;;;;;;;;;4918979;29;20917;-63
2023/01/13 13:29:56;;;;;;;3.87;1.60;;;;;;;;;;4933491;28;20214;-63
2023/01/13 13:32:46;;;;;;;3.80;1.70;;;;;;;;;;4932022;29;20327;-63
2023/01/13 13:35:32;;;;;;;3.37;1.70;;;;;;;;;;4910060;29;20206;-63
2023/01/13 13:47:05;;;;;;;4.43;2.10;;;;;;;;;;4922861;29;20211;-63
2023/01/13 13:49:36;;;;;;;4.77;2.10;;;;;;;;;;4910722;29;20216;-63
2023/01/13 13:52:06;;;;;;;4.23;2.20;;;;;;;;;;4927032;29;20182;-65
2023/01/13 13:54:33;;;;;;;4.67;2.50;;;;;;;;;;4912199;29;21211;-64
2023/01/13 13:57:00;;;;;;;5.77;3.70;;;;;;;;;;4912401;28;20679;-64
2023/01/13 13:59:29;;;;;;;8.80;4.40;;;;;;;;;;4932410;29;20225;-63
2023/01/13 14:02:02;;;;;;;6.50;3.87;;;;;;;;;;4932703;28;20198;-64
2023/01/13 14:04:30;;;;;;;8.23;3.80;;;;;;;;;;4928217;28;20203;-65
2023/01/13 14:07:19;;;;;;;9.13;5.40;;;;;;;;;;4928609;29;20203;-64
2023/01/13 14:09:52;;;;;;;5.80;2.93;;;;;;;;;;4931546;28;20198;-64
2023/01/13 14:12:37;;;;;;;8.60;4.00;;;;;;;;;;4912466;29;20277;-65
2023/01/13 14:15:04;;;;;;;7.50;3.47;;;;;;;;;;4899320;29;20940;-64
2023/01/13 14:17:32;;;;;;;9.33;3.67;;;;;;;;;;4903848;29;20738;-64
2023/01/13 14:20:04;;;;;;;8.53;2.50;;;;;;;;;;4913800;29;20230;-64
2023/01/13 14:22:31;;;;;;;4.73;2.00;;;;;;;;;;4925880;28;20780;-63
2023/01/13 14:25:00;;;;;;;5.73;2.80;;;;;;;;;;4927494;29;20198;-63
2023/01/13 14:27:27;;;;;;;8.63;2.70;;;;;;;;;;4913483;29;20823;-65
2023/01/13 14:29:55;;;;;;;9.43;3.23;;;;;;;;;;4933800;29;20261;-63
2023/01/13 14:32:22;;;;;;;7.87;3.10;;;;;;;;;;4928112;28;20277;-65
2023/01/13 14:34:49;;;;;;;9.90;4.70;;;;;;;;;;4904881;29;20289;-64
2023/01/13 14:37:23;;;;;;;9.37;4.40;;;;;;;;;;4910459;29;20203;-63
2023/01/13 14:39:50;;;;;;;11.47;5.40;;;;;;;;;;4927251;29;20226;-65
2023/01/13 14:42:17;;;;;;;11.67;6.77;;;;;;;;;;4928877;29;20209;-63
2023/01/13 14:44:45;;;;;;;7.40;3.40;;;;;;;;;;4937104;28;20226;-63
2023/01/13 14:47:22;;;;;;;8.20;3.40;;;;;;;;;;4910365;29;20198;-64
2023/01/13 14:49:51;;;;;;;5.30;2.70;;;;;;;;;;4920053;29;20301;-63
2023/01/13 14:52:20;;;;;;;7.37;2.97;;;;;;;;;;4936347;29;20230;-64
2023/01/13 14:55:10;;;;;;;5.37;2.73;;;;;;;;;;4914339;29;20194;-62
2023/01/13 14:57:38;;;;;;;7.73;2.97;;;;;;;;;;4917986;29;20227;-64
2023/01/13 15:00:06;;;;;;;9.67;3.20;;;;;;;;;;4917296;29;20226;-63
2023/01/13 15:02:37;;;;;;;7.20;3.23;;;;;;;;;;4939367;29;20246;-63
2023/01/13 15:05:17;;;;;;;9.70;3.70;;;;;;;;;;4920279;29;20250;-64
2023/01/13 15:07:47;;;;;;;5.73;2.90;;;;;;;;;;4944258;28;20202;-64
2023/01/13 15:10:18;;;;;;;7.50;3.53;;;;;;;;;;4925247;29;20217;-63
2023/01/13 15:12:44;;;;;;;5.00;2.53;;;;;;;;;;4943903;29;20202;-63
2023/01/13 15:15:31;;;;;;;8.43;3.53;;;;;;;;;;4932343;29;20199;-63
2023/01/13 15:18:18;;;;;;;7.93;3.60;;;;;;;;;;4918389;28;20229;-64
2023/01/13 15:20:45;;;;;;;7.73;3.43;;;;;;;;;;4931248;28;20704;-64
2023/01/13 15:23:12;;;;;;;9.37;3.70;;;;;;;;;;4931692;29;20191;-63
2023/01/13 15:25:40;;;;;;;9.83;4.47;;;;;;;;;;4915327;29;20243;-65
2023/01/13 15:28:28;;;;;;;9.57;4.60;;;;;;;;;;4927899;29;20219;-64
2023/01/13 15:31:13;;;;;;;12.90;4.50;;;;;;;;;;4913112;29;20182;-64
2023/01/13 15:33:43;;;;;;;11.50;5.07;;;;;;;;;;4928673;29;20199;-65
2023/01/13 15:36:29;;;;;;;9.07;4.13;;;;;;;;;;4933830;29;20187;-65
2023/01/13 15:38:57;;;;;;;8.97;4.50;;;;;;;;;;4929880;28;20277;-65
2023/01/13 15:46:58;;;;;;;9.13;3.30;;;;;;;;;;4928681;29;20385;-64
2023/01/13 15:49:35;;;;;;;11.63;4.87;;;;;;;;;;4920098;29;20217;-64
2023/01/13 15:52:15;;;;;;;10.40;4.63;;;;;;;;;;4914282;29;20194;-66
2023/01/13 15:54:42;;;;;;;11.40;4.73;;;;;;;;;;4921828;29;20243;-64
2023/01/13 15:57:22;;;;;;;9.10;4.50;;;;;;;;;;4929954;29;20201;-64
2023/01/13 15:59:48;;;;;;;11.80;4.93;;;;;;;;;;4933674;28;20277;-63
2023/01/13 16:02:17;;;;;;;9.40;4.80;;;;;;;;;;4932679;29;20191;-63
2023/01/13 16:04:44;;;;;;;13.63;6.23;;;;;;;;;;4940568;28;20542;-63
2023/01/13 16:07:15;;;;;;;11.97;4.87;;;;;;;;;;4926858;29;20250;-63
2023/01/13 16:09:41;;;;;;;5.73;2.70;;;;;;;;;;4933030;29;20229;-64
2023/01/13 16:12:31;;;;;;;10.87;3.93;;;;;;;;;;4937611;29;20201;-63
2023/01/13 16:14:59;;;;;;;8.67;4.50;;;;;;;;;;4910208;29;20645;-62
2023/01/13 16:17:29;;;;;;;9.90;3.67;;;;;;;;;;4911603;29;20199;-65
2023/01/13 16:19:57;;;;;;;9.63;4.40;;;;;;;;;;4909232;29;20214;-64
2023/01/13 16:22:24;;;;;;;7.27;4.47;;;;;;;;;;4937070;29;20202;-65
2023/01/13 16:24:51;;;;;;;7.97;4.93;;;;;;;;;;4938116;29;20205;-63
2023/01/13 16:27:18;;;;;;;9.57;4.43;;;;;;;;;;4931498;29;20231;-63
2023/01/13 16:30:03;;;;;;;10.10;4.90;;;;;;;;;;4936298;29;20275;-63
2023/01/13 16:32:29;;;;;;;9.20;4.53;;;;;;;;;;4929858;29;20218;-64
2023/01/13 16:34:56;;;;;;;6.13;3.23;;;;;;;;;;4928156;29;20274;-66
2023/01/13 16:37:25;;;;;;;7.57;3.33;;;;;;;;;;4930751;29;20609;-63
2023/01/13 16:39:52;;;;;;;5.90;3.37;;;;;;;;;;4930397;29;20219;-63
2023/01/13 16:42:36;;;;;;;8.53;3.90;;;;;;;;;;4915704;28;20201;-64